LSZHLSZC

Guest
Details From LSZH - Zurich
To LSZC - Buochs
Flight Number -
Tags Routegen Generated
Created
Modified
Stats Distance 33 nm / 62 km
Max Altitude 100 ft / 30 m
Waypoints 5
Social Downloads 2
Likes 0
Share VATSIM

Download

Looking for another format? Having issues loading an existing format? Contact us
Advertisement - Login to hide

Notes

Departing runway 15 LSZH. Arriving runway 6 LSZC.

Route

LSZH +47.38_+008.60 +47.21_+008.60 +47.04_+008.60 LSZC

ID Type Via Altitude Latitude Longitude Leg Dist Tot Dist Heading (true) Name
O LSZH APT - 0 ft / 0 m 47.44544˚ 8.55673˚ - 0 nm - -
+47.38_+008.60 DME - 100 ft / 30 m 47.37983˚ 8.60188˚ 4 nm 4 nm 155° / 155° -
+47.21_+008.60 DME - 100 ft / 30 m 47.21144˚ 8.60149˚ 10 nm 14 nm 180° / 180° -
+47.04_+008.60 DME - 100 ft / 30 m 47.04305˚ 8.60110˚ 10 nm 24 nm 180° / 180° -
O LSZC APT - 0 ft / 0 m 46.97978˚ 8.41019˚ 8 nm 33 nm 244° / 244° -

Altitude Profile

Advertisement - Login to hide

LSZH

Details ICAO LSZH (ZRH)
Name Zurich
Region Switzerland
Timezone Europe/Zurich (UTC+2.0)
Stats Elevation 1,416 ft / 432 m (AMSL)
Location 47.463489° 8.549964°
Runways 3
Magnetic Variation 2.398° E

METAR

LSZH 211120Z VRB02KT 9999 FEW040 SCT210 22/10 Q1014 NOSIG

Decode

TAF

TAF LSZH 210825Z 2109/2215 VRB03KT 9999 FEW014 TX22/2114Z TN10/2204Z TX23/2214Z PROB40 TEMPO 2113/2119 SHRA SCT040TCU PROB30 TEMPO 2113/2119 16012KT 4000 TSRA FEW040CB BECMG 2118/2121 CAVOK PROB30 2203/2207 2000 BCFG BKN002 BECMG 2210/2213 9999 SCT040TCU

Decode

Departure Runways

ID Width Length Bearing (true) Bearing (mag) Surface Threshold Offset Overrun Length
10 197 ft / 60 m 8,180 ft / 2,493 m 95.98° 93.58° Concrete 0 ft / 0 m 197 ft / 60 m
14 197 ft / 60 m 10,816 ft / 3,297 m 137.30° 134.90° Concrete 492 ft / 150 m 0 ft / 0 m
16 197 ft / 60 m 12,137 ft / 3,699 m 155.00° 152.60° Concrete 0 ft / 0 m 197 ft / 60 m
28 197 ft / 60 m 8,180 ft / 2,493 m 276.01° 273.61° Concrete 0 ft / 0 m 197 ft / 60 m
32 197 ft / 60 m 10,816 ft / 3,297 m 317.32° 314.92° Concrete 0 ft / 0 m 197 ft / 60 m
34 197 ft / 60 m 12,137 ft / 3,699 m 335.01° 332.61° Concrete 1,542 ft / 470 m 0 ft / 0 m

LSZC

Details ICAO LSZC (BXO)
Name Buochs
Region Switzerland
Timezone Europe/Zurich (UTC+2.0)
Stats Elevation 1,475 ft / 450 m (AMSL)
Location 46.973188° 8.397360°
Runways 2
Magnetic Variation 2.358° E

METAR

LSZC 211120Z AUTO VRB03KT CAVOK 21/10 Q1014

Decode

TAF

Not found

Destination Runways

ID Width Length Bearing (true) Bearing (mag) Surface Threshold Offset Overrun Length
07L 131 ft / 40 m 6,570 ft / 2,002 m 64.09° 61.73° Asphalt 0 ft / 0 m 650 ft / 198 m
07R 131 ft / 40 m 4,827 ft / 1,471 m 64.00° 61.64° Asphalt 0 ft / 0 m 1,161 ft / 354 m
25L 131 ft / 40 m 4,827 ft / 1,471 m 244.02° 241.66° Asphalt 0 ft / 0 m 1,161 ft / 354 m
25R 131 ft / 40 m 6,570 ft / 2,002 m 244.11° 241.75° Asphalt 0 ft / 0 m 650 ft / 198 m

Popular Alternatives